Time;durP1;ratioP1;P1;durP2;ratioP2;P2;SDS_P1;SDS_P2;PMS_P1;PMS_P2;Temp;Humidity;BMP_temperature;BMP_pressure;BME280_temperature;BME280_humidity;BME280_pressure;Samples;Min_cycle;Max_cycle;Signal;HPM_P1;HPM_P2
2023/08/01 00:00:09;;;;;;;2.20;2.10;;;22.20;83.00;;;22.68;56.26;94643.94;5075617;28;20955;-63
2023/08/01 00:02:36;;;;;;;1.67;1.57;;;22.10;83.30;;;22.63;56.43;94646.44;5076011;28;20454;-59
2023/08/01 00:05:04;;;;;;;1.50;1.40;;;22.10;83.70;;;22.59;56.60;94642.56;5072949;28;20514;-59
2023/08/01 00:07:31;;;;;;;4.10;1.80;;;22.10;83.70;;;22.56;56.68;94643.81;5076425;28;20903;-60
2023/08/01 00:09:59;;;;;;;2.30;2.10;;;22.00;84.00;;;22.54;56.58;94634.34;5074239;28;20454;-59
2023/08/01 00:12:26;;;;;;;1.63;1.53;;;22.00;84.30;;;22.51;56.79;94638.31;5076332;28;20549;-62
2023/08/01 00:14:54;;;;;;;3.10;1.70;;;22.00;84.50;;;22.49;56.71;94639.56;5073303;28;21001;-60
2023/08/01 00:17:22;;;;;;;1.67;1.57;;;22.00;84.60;;;22.46;57.03;94638.13;5076056;28;20884;-59
2023/08/01 00:19:49;;;;;;;4.77;1.63;;;21.90;84.70;;;22.45;56.89;94644.53;5070354;28;20445;-59
2023/08/01 00:22:16;;;;;;;1.80;1.53;;;21.90;84.70;;;22.44;57.09;94640.22;5074976;28;20510;-63
2023/08/01 00:24:43;;;;;;;2.37;2.17;;;21.90;85.20;;;22.42;57.12;94628.91;5073393;28;20462;-62
2023/08/01 00:27:11;;;;;;;3.07;1.73;;;21.90;85.10;;;22.40;56.99;94641.69;5073654;28;20473;-58
2023/08/01 00:29:38;;;;;;;1.97;1.87;;;21.90;85.60;;;22.37;57.86;94636.78;5078054;28;20513;-59
2023/08/01 00:32:07;;;;;;;2.37;2.17;;;21.80;85.90;;;22.34;57.43;94645.25;5072816;28;20527;-62
2023/08/01 00:34:34;;;;;;;2.03;1.93;;;21.80;86.30;;;22.31;57.29;94643.84;5075878;28;20486;-58
2023/08/01 00:37:02;;;;;;;1.83;1.70;;;21.80;86.20;;;22.29;57.87;94635.19;5070352;28;20466;-63
2023/08/01 00:39:29;;;;;;;2.03;1.83;;;21.80;86.50;;;22.28;57.23;94638.06;5071814;28;20481;-58
2023/08/01 00:41:56;;;;;;;4.00;2.10;;;21.70;86.40;;;22.27;57.60;94641.78;5076599;28;20539;-59
2023/08/01 00:44:24;;;;;;;5.10;2.00;;;21.70;87.00;;;22.24;57.56;94640.34;5069586;28;20455;-59
2023/08/01 00:46:51;;;;;;;2.00;1.87;;;21.70;87.00;;;22.22;57.95;94633.59;5081136;28;20569;-63
2023/08/01 00:49:19;;;;;;;3.27;1.97;;;21.70;87.00;;;22.21;57.73;94624.72;5070173;28;20455;-63
2023/08/01 00:51:47;;;;;;;2.10;2.00;;;21.70;86.90;;;22.19;57.44;94624.13;5075118;28;20466;-63
2023/08/01 00:54:14;;;;;;;3.60;1.80;;;21.70;87.20;;;22.18;57.51;94627.81;5074303;28;20955;-63
2023/08/01 00:56:41;;;;;;;1.73;1.63;;;21.70;87.40;;;22.14;57.76;94622.09;5072002;28;20474;-63
2023/08/01 00:59:08;;;;;;;2.00;1.90;;;21.70;87.20;;;22.14;57.62;94622.09;5077275;28;20500;-60
2023/08/01 01:01:35;;;;;;;1.80;1.70;;;21.60;87.10;;;22.15;57.42;94617.53;5074449;28;20860;-60
2023/08/01 01:04:03;;;;;;;3.57;2.10;;;21.60;88.00;;;22.12;57.82;94613.47;5072221;28;20458;-58
2023/08/01 01:06:34;;;;;;;4.80;1.93;;;21.60;87.40;;;22.14;57.77;94622.09;5074555;28;20479;-62
2023/08/01 01:09:04;;;;;;;4.60;2.13;;;21.60;87.00;;;22.15;57.12;94617.53;5071739;28;20504;-65
2023/08/01 01:11:31;;;;;;;2.70;1.83;;;21.60;86.80;;;22.16;57.05;94613.84;5075578;28;20485;-63
2023/08/01 01:13:59;;;;;;;2.43;2.23;;;21.60;86.50;;;22.19;56.84;94610.72;5070911;28;20463;-59
2023/08/01 01:16:26;;;;;;;4.03;2.40;;;21.70;86.40;;;22.18;57.30;94609.06;5071962;28;20494;-65
2023/08/01 01:18:53;;;;;;;2.00;1.90;;;21.60;86.10;;;22.20;56.59;94602.47;5077592;28;20459;-61
2023/08/01 01:21:22;;;;;;;1.73;1.63;;;21.60;85.90;;;22.20;56.68;94605.13;5070568;28;20978;-59
2023/08/01 01:23:49;;;;;;;2.90;2.10;;;21.70;85.90;;;22.22;56.74;94606.78;5076025;28;21001;-62
2023/08/01 01:26:20;;;;;;;3.90;1.80;;;21.70;85.70;;;22.22;56.34;94601.44;5073938;28;20479;-63
2023/08/01 01:28:47;;;;;;;2.90;2.30;;;21.70;85.50;;;22.18;56.68;94599.19;5072231;28;20552;-59
2023/08/01 01:31:15;;;;;;;1.90;1.80;;;21.70;85.50;;;22.18;56.65;94599.19;5070176;28;20920;-64
2023/08/01 01:33:42;;;;;;;1.80;1.70;;;21.60;85.40;;;22.16;56.48;94592.41;5074402;28;20473;-61
2023/08/01 01:36:09;;;;;;;1.87;1.77;;;21.60;85.20;;;22.15;56.15;94596.94;5069280;28;20494;-62
2023/08/01 01:38:38;;;;;;;2.37;1.97;;;21.60;85.30;;;22.13;56.41;94590.97;5072156;28;20458;-64
2023/08/01 01:41:05;;;;;;;2.20;2.00;;;21.60;85.20;;;22.11;56.50;94598.41;5071892;28;20459;-62
2023/08/01 01:43:32;;;;;;;1.73;1.63;;;21.60;85.10;;;22.10;56.25;94595.94;5074269;28;20450;-62
2023/08/01 01:45:59;;;;;;;2.03;1.93;;;21.60;85.10;;;22.08;56.54;94596.16;5067465;28;20563;-58
2023/08/01 01:48:27;;;;;;;6.47;2.00;;;21.60;85.10;;;22.08;56.08;94601.53;5072949;28;20458;-62
2023/08/01 01:50:54;;;;;;;2.40;2.17;;;21.60;85.00;;;22.07;56.14;94599.06;5070353;28;21076;-64
2023/08/01 01:53:21;;;;;;;2.00;1.87;;;21.60;85.10;;;22.03;56.36;94604.84;5076422;28;20833;-63
2023/08/01 01:55:50;;;;;;;6.97;2.07;;;21.50;84.90;;;22.01;56.48;94606.09;5069140;28;20490;-62
2023/08/01 01:58:17;;;;;;;1.93;1.73;;;21.50;84.70;;;21.99;56.29;94606.31;5074874;28;20458;-59
2023/08/01 02:00:45;;;;;;;2.83;1.53;;;21.50;84.50;;;21.97;55.87;94608.41;5072418;28;20540;-63
2023/08/01 02:03:12;;;;;;;2.27;2.10;;;21.50;84.40;;;21.95;55.82;94607.81;5073307;28;20549;-60
2023/08/01 02:05:41;;;;;;;2.83;1.67;;;21.40;84.40;;;21.93;56.00;94617.09;5075971;28;20470;-59
2023/08/01 02:08:08;;;;;;;3.20;1.70;;;21.40;84.50;;;21.90;55.72;94604.94;5073930;28;20450;-62
2023/08/01 02:10:35;;;;;;;2.03;1.63;;;21.40;84.50;;;21.88;55.71;94601.69;5072799;28;21005;-64
2023/08/01 02:13:04;;;;;;;11.63;2.30;;;21.30;84.40;;;21.87;56.24;94604.56;5072865;28;20458;-63
2023/08/01 02:15:31;;;;;;;2.83;2.03;;;21.40;84.60;;;21.84;56.21;94612.00;5072703;28;20967;-62
2023/08/01 02:17:59;;;;;;;2.53;2.33;;;21.30;85.30;;;21.80;56.23;94610.78;5071238;28;20497;-62
2023/08/01 02:20:28;;;;;;;3.87;2.17;;;21.30;84.70;;;21.76;55.91;94609.56;5073802;28;20917;-58
2023/08/01 02:22:55;;;;;;;1.67;1.57;;;21.30;84.60;;;21.73;55.95;94604.66;5069358;28;20543;-62
2023/08/01 02:25:22;;;;;;;2.30;2.20;;;21.30;84.70;;;21.69;56.17;94598.09;5072394;28;20470;-60
2023/08/01 02:27:50;;;;;;;3.23;2.30;;;21.20;84.70;;;21.68;56.21;94604.47;5071250;28;20911;-63
2023/08/01 02:30:18;;;;;;;6.00;2.67;;;21.20;85.10;;;21.63;56.17;94598.97;5072275;28;20874;-63
2023/08/01 02:32:46;;;;;;;7.23;2.07;;;21.10;85.00;;;21.61;57.00;94603.69;5071509;28;20466;-59
2023/08/01 02:35:13;;;;;;;2.20;2.10;;;21.10;85.70;;;21.56;56.63;94603.53;5071178;28;21541;-59
2023/08/01 02:37:42;;;;;;;2.53;2.13;;;21.10;85.70;;;21.52;56.87;94599.63;5071785;28;20462;-64
2023/08/01 02:40:11;;;;;;;2.50;2.30;;;21.00;86.00;;;21.46;57.65;94599.44;5067845;28;20447;-63
2023/08/01 02:42:38;;;;;;;3.93;2.07;;;21.00;86.80;;;21.42;57.12;94597.38;5070366;28;20458;-64
2023/08/01 02:45:06;;;;;;;2.07;1.97;;;20.90;86.50;;;21.36;57.35;94604.41;5075107;28;20470;-63
2023/08/01 02:47:35;;;;;;;2.60;2.40;;;20.90;86.90;;;21.32;57.43;94603.22;5072561;28;20876;-59
2023/08/01 02:50:02;;;;;;;2.43;1.73;;;20.90;87.10;;;21.28;57.69;94597.44;5074991;28;20512;-60
2023/08/01 02:52:30;;;;;;;2.80;1.90;;;20.80;87.00;;;21.25;57.53;94597.06;5070751;28;20520;-60
2023/08/01 02:54:57;;;;;;;1.60;1.50;;;20.80;87.00;;;21.21;57.78;94596.69;5075621;28;20985;-59
2023/08/01 02:57:24;;;;;;;6.83;2.23;;;20.70;87.80;;;21.17;58.16;94605.34;5068242;28;21032;-59
2023/08/01 02:59:53;;;;;;;2.50;2.30;;;20.70;88.40;;;21.12;58.11;94606.78;5075862;28;20515;-63
2023/08/01 03:02:20;;;;;;;14.63;3.00;;;20.70;88.50;;;21.09;58.44;94614.41;5067753;28;20451;-63
2023/08/01 03:04:49;;;;;;;5.20;2.10;;;20.60;88.80;;;21.03;58.28;94605.38;5071361;28;20454;-64
2023/08/01 03:07:16;;;;;;;2.60;2.50;;;20.60;88.90;;;21.00;58.50;94605.81;5073386;28;20959;-64
2023/08/01 03:09:44;;;;;;;2.50;2.30;;;20.50;89.20;;;20.95;58.47;94605.63;5069922;28;20455;-59
2023/08/01 03:12:11;;;;;;;2.50;2.30;;;20.50;89.20;;;20.90;58.82;94608.13;5073123;28;20840;-61
2023/08/01 03:14:38;;;;;;;6.60;2.87;;;20.50;89.80;;;20.86;58.76;94604.22;5068676;28;20516;-58
2023/08/01 03:17:05;;;;;;;3.83;2.93;;;20.40;89.70;;;20.81;58.76;94606.69;5069519;28;20591;-58
2023/08/01 03:19:33;;;;;;;2.90;2.57;;;20.30;89.70;;;20.76;58.65;94602.78;5072688;28;20443;-59
2023/08/01 03:22:02;;;;;;;2.93;2.63;;;20.30;89.70;;;20.73;58.71;94613.91;5072906;28;20479;-59
2023/08/01 03:24:29;;;;;;;3.97;2.97;;;20.30;89.90;;;20.70;58.66;94611.66;5077960;28;20458;-63
2023/08/01 03:26:56;;;;;;;7.20;3.63;;;20.20;89.80;;;20.68;58.83;94610.19;5071992;28;20467;-58
2023/08/01 03:29:23;;;;;;;5.60;3.33;;;20.20;89.80;;;20.64;58.79;94609.78;5078544;28;20480;-59
2023/08/01 03:31:50;;;;;;;5.40;3.13;;;20.20;90.00;;;20.62;58.83;94611.84;5070974;28;20470;-58
2023/08/01 03:34:18;;;;;;;17.00;2.70;;;20.20;90.00;;;20.58;58.49;94614.09;5079126;28;20515;-58
2023/08/01 03:36:45;;;;;;;5.77;3.50;;;20.10;89.70;;;20.54;58.68;94617.38;5070102;28;20482;-60
2023/08/01 03:39:13;;;;;;;7.00;4.03;;;20.10;89.70;;;20.49;58.65;94619.88;5073988;28;20455;-63
2023/08/01 03:41:41;;;;;;;14.03;4.70;;;20.00;89.70;;;20.48;58.73;94623.56;5076233;28;21127;-62
2023/08/01 03:44:08;;;;;;;9.47;3.80;;;20.00;90.10;;;20.46;58.81;94622.97;5073812;28;20461;-65
2023/08/01 03:46:35;;;;;;;6.87;4.03;;;20.00;90.10;;;20.48;58.68;94612.88;5076634;28;20478;-65
2023/08/01 03:49:02;;;;;;;5.80;3.23;;;20.00;90.10;;;20.53;58.90;94621.13;5073618;28;20451;-65
2023/08/01 03:51:30;;;;;;;3.03;2.83;;;20.00;90.30;;;20.57;59.49;94627.66;5077998;28;20471;-58
2023/08/01 03:53:57;;;;;;;8.33;4.00;;;20.10;90.60;;;20.62;58.57;94619.88;5075893;28;20474;-65
2023/08/01 03:56:26;;;;;;;4.67;2.27;;;20.10;90.40;;;20.66;59.06;94623.78;5074714;28;20497;-59
2023/08/01 03:58:54;;;;;;;3.73;3.03;;;20.20;90.60;;;20.69;58.89;94631.38;5079224;28;20474;-64
2023/08/01 04:01:21;;;;;;;5.93;3.00;;;20.20;90.50;;;20.73;59.14;94632.63;5076397;28;21022;-65
2023/08/01 04:03:48;;;;;;;4.60;3.00;;;20.20;90.70;;;20.79;59.00;94644.34;5072059;28;20447;-59
2023/08/01 04:06:15;;;;;;;6.50;3.20;;;20.20;90.60;;;20.83;59.02;94626.81;5070498;28;20524;-60
2023/08/01 04:08:43;;;;;;;7.60;2.63;;;20.30;90.70;;;20.88;59.07;94628.88;5071201;28;20986;-70
2023/08/01 04:11:11;;;;;;;3.63;2.63;;;20.40;90.70;;;20.86;58.98;94631.75;5072142;28;20475;-59
2023/08/01 04:13:39;;;;;;;4.40;3.40;;;20.40;90.80;;;20.81;59.05;94628.91;5076425;28;20557;-66
2023/08/01 04:16:06;;;;;;;7.40;3.77;;;20.40;90.70;;;20.80;59.17;94627.25;5076476;28;20575;-59
2023/08/01 04:18:34;;;;;;;6.40;3.40;;;20.30;90.80;;;20.80;59.49;94629.09;5071685;28;20447;-59
2023/08/01 04:21:01;;;;;;;7.00;3.13;;;20.30;91.20;;;20.77;59.45;94633.00;5071486;28;20751;-62
2023/08/01 04:23:28;;;;;;;3.50;3.20;;;20.30;91.20;;;20.82;59.85;94640.41;5075539;28;20523;-67
2023/08/01 04:25:55;;;;;;;11.13;3.73;;;20.30;91.50;;;20.87;59.76;94637.94;5071584;28;20908;-59
2023/08/01 04:28:23;;;;;;;15.17;4.37;;;20.40;91.50;;;20.92;59.50;94638.94;5069998;28;20447;-67
2023/08/01 04:30:52;;;;;;;6.70;3.50;;;20.40;91.30;;;20.98;59.58;94645.31;5072321;28;20935;-59
2023/08/01 04:33:19;;;;;;;4.03;3.60;;;20.50;91.50;;;21.02;58.97;94637.69;5074233;28;20465;-59
2023/08/01 04:35:46;;;;;;;12.73;3.27;;;20.50;91.30;;;21.04;59.55;94644.47;5072413;28;20990;-59
2023/08/01 04:38:14;;;;;;;7.00;3.47;;;20.50;91.30;;;21.06;59.37;94642.38;5072458;28;20463;-66
2023/08/01 04:40:41;;;;;;;3.80;2.67;;;20.60;91.40;;;21.05;59.91;94638.09;5074651;28;20482;-67
2023/08/01 04:43:08;;;;;;;3.47;3.10;;;20.60;91.60;;;21.05;59.33;94635.41;5077510;28;20539;-57
2023/08/01 04:45:36;;;;;;;4.70;3.80;;;20.60;91.30;;;21.07;59.45;94632.53;5073524;28;20564;-59
2023/08/01 04:48:05;;;;;;;8.67;5.70;;;20.60;91.30;;;21.09;59.21;94641.97;5073000;28;20865;-58
2023/08/01 04:50:32;;;;;;;13.80;6.70;;;20.60;91.30;;;21.16;59.42;94630.44;5073341;28;21161;-58
2023/08/01 04:53:00;;;;;;;11.90;5.30;;;20.70;91.40;;;21.25;58.98;94631.84;5073207;28;20529;-64
2023/08/01 04:55:27;;;;;;;9.00;5.30;;;20.70;91.40;;;21.31;59.17;94634.47;5075136;28;20466;-64
2023/08/01 04:57:54;;;;;;;8.00;4.57;;;20.80;91.40;;;21.38;58.58;94628.28;5075255;28;20462;-65
2023/08/01 05:00:22;;;;;;;11.13;5.00;;;20.90;90.90;;;21.42;58.63;94632.19;5072953;28;20552;-64
2023/08/01 05:02:49;;;;;;;6.03;4.63;;;20.90;90.90;;;21.48;58.39;94634.81;5078461;28;20458;-70
2023/08/01 05:05:18;;;;;;;9.47;4.83;;;21.00;90.80;;;21.54;58.62;94627.00;5070914;28;21025;-62
2023/08/01 05:07:45;;;;;;;6.97;5.10;;;21.00;90.80;;;21.57;58.37;94629.25;5078298;28;20523;-59
2023/08/01 05:10:13;;;;;;;7.73;5.13;;;21.00;90.60;;;21.57;58.38;94631.94;5070156;28;21002;-60
2023/08/01 05:12:40;;;;;;;9.13;5.23;;;21.00;90.60;;;21.56;58.25;94630.28;5073333;28;20466;-62
2023/08/01 05:15:09;;;;;;;8.13;5.60;;;21.00;90.40;;;21.58;58.34;94633.56;5073291;28;20447;-63
2023/08/01 05:17:36;;;;;;;7.73;6.83;;;21.10;90.50;;;21.58;57.92;94639.75;5070733;28;20497;-63
2023/08/01 05:20:04;;;;;;;8.40;5.47;;;21.10;90.40;;;21.59;58.09;94635.22;5070528;28;20447;-62
2023/08/01 05:22:33;;;;;;;7.40;6.57;;;21.10;90.40;;;21.63;58.03;94631.09;5072721;28;20531;-58
2023/08/01 05:25:01;;;;;;;9.23;6.87;;;21.10;90.30;;;21.68;57.85;94631.25;5074357;28;20466;-64
2023/08/01 05:27:28;;;;;;;8.40;7.07;;;21.20;90.50;;;21.76;57.84;94640.88;5071769;28;20451;-62
2023/08/01 05:29:56;;;;;;;9.90;7.67;;;21.20;90.40;;;21.88;57.64;94641.03;5075002;28;20950;-62
2023/08/01 05:32:23;;;;;;;13.40;6.83;;;21.30;90.40;;;22.02;57.53;94642.56;5069408;28;20473;-57
2023/08/01 05:34:50;;;;;;;8.10;7.00;;;21.40;90.30;;;22.17;57.12;94643.09;5073766;28;21257;-61
2023/08/01 05:37:17;;;;;;;9.30;6.90;;;21.60;90.00;;;22.38;57.31;94646.44;5072492;28;20510;-58
2023/08/01 05:39:46;;;;;;;4.20;3.90;;;21.70;89.80;;;22.59;57.00;94639.88;5072856;28;20454;-63
2023/08/01 05:42:13;;;;;;;6.03;4.00;;;21.90;89.40;;;22.81;55.91;94650.19;5075182;28;20485;-57
2023/08/01 05:44:40;;;;;;;9.17;4.67;;;22.10;88.40;;;23.04;55.90;94645.00;5071303;28;20439;-58
2023/08/01 05:47:08;;;;;;;6.33;4.40;;;22.40;88.20;;;23.25;55.19;94646.47;5074487;28;20547;-63
2023/08/01 05:49:35;;;;;;;2.73;2.63;;;22.60;87.40;;;23.48;54.91;94638.75;5072073;28;20443;-58
2023/08/01 05:52:02;;;;;;;7.67;2.87;;;22.80;86.70;;;23.72;53.99;94640.50;5072584;28;20498;-63
2023/08/01 05:54:29;;;;;;;3.30;2.60;;;23.00;85.60;;;23.93;54.00;94639.19;5074526;28;20463;-59
2023/08/01 05:56:58;;;;;;;8.23;2.90;;;23.20;83.50;;;24.08;53.06;94629.91;5072991;28;20605;-60
2023/08/01 05:59:25;;;;;;;3.63;3.33;;;23.40;82.20;;;24.26;52.20;94627.13;5073829;28;20457;-59
2023/08/01 06:01:53;;;;;;;6.80;3.07;;;23.60;82.50;;;24.47;51.47;94630.31;5074768;28;20470;-63
2023/08/01 06:04:20;;;;;;;8.70;3.30;;;23.70;80.50;;;24.69;51.49;94628.72;5070303;28;20528;-63
2023/08/01 06:06:47;;;;;;;4.83;2.80;;;24.00;79.60;;;24.91;50.49;94624.59;5070642;28;20471;-59
2023/08/01 06:09:14;;;;;;;4.13;2.20;;;24.20;78.50;;;25.12;50.56;94629.38;5074418;28;20458;-63
2023/08/01 06:11:42;;;;;;;6.80;2.50;;;24.30;77.70;;;25.34;49.96;94636.84;5069361;28;20477;-63
2023/08/01 06:14:10;;;;;;;4.30;3.23;;;24.60;76.90;;;25.54;49.69;94626.47;5074470;28;20454;-64
2023/08/01 06:16:38;;;;;;;2.80;2.50;;;24.80;75.70;;;25.74;49.18;94623.38;5070308;28;20886;-63
2023/08/01 06:19:05;;;;;;;4.27;2.43;;;25.00;75.30;;;25.96;48.62;94625.38;5072615;28;20515;-62
2023/08/01 06:21:32;;;;;;;9.43;2.00;;;25.20;74.80;;;26.18;48.07;94624.72;5072154;28;20473;-59
2023/08/01 06:23:59;;;;;;;4.30;2.87;;;25.40;73.60;;;26.34;47.47;94626.59;5072998;28;20460;-63
2023/08/01 06:26:27;;;;;;;5.13;2.83;;;25.60;72.50;;;26.50;47.18;94616.88;5070636;28;20524;-62
2023/08/01 06:28:54;;;;;;;6.33;2.63;;;25.70;71.60;;;26.59;46.88;94615.41;5071824;28;20514;-62
2023/08/01 06:31:23;;;;;;;3.67;2.23;;;25.80;71.30;;;26.74;46.70;94622.94;5073275;28;20497;-63
2023/08/01 06:33:50;;;;;;;3.40;3.03;;;25.90;71.00;;;26.92;44.87;94610.25;5069459;28;20498;-62
2023/08/01 06:36:18;;;;;;;3.17;2.23;;;26.10;68.90;;;27.12;45.60;94618.59;5065791;28;20469;-58
2023/08/01 06:38:46;;;;;;;5.67;2.97;;;26.30;69.60;;;27.35;45.12;94616.78;5068839;28;20988;-62
2023/08/01 06:41:13;;;;;;;2.47;1.97;;;26.50;68.80;;;27.61;45.11;94614.38;5073707;28;20531;-59
2023/08/01 06:43:40;;;;;;;2.67;2.47;;;26.80;68.50;;;27.83;44.82;94612.44;5072878;28;21008;-64
2023/08/01 06:46:07;;;;;;;2.73;2.53;;;27.00;67.50;;;28.00;44.39;94609.69;5074585;28;20465;-60
2023/08/01 06:48:36;;;;;;;2.67;1.97;;;27.20;66.90;;;28.26;43.48;94618.03;5075915;28;20472;-64
2023/08/01 06:51:04;;;;;;;7.90;3.50;;;27.40;66.50;;;28.53;43.80;94609.84;5067336;28;20481;-63
2023/08/01 06:53:31;;;;;;;3.13;2.53;;;27.70;65.90;;;28.79;43.57;94601.97;5071389;28;20516;-59
2023/08/01 06:55:58;;;;;;;10.20;2.43;;;27.90;66.20;;;29.02;42.53;94610.75;5066693;28;20474;-59
2023/08/01 06:58:25;;;;;;;8.40;2.53;;;28.20;64.80;;;29.21;42.59;94609.25;5070755;28;20485;-57
2023/08/01 07:00:53;;;;;;;3.00;2.30;;;28.40;64.00;;;29.35;42.04;94608.78;5074194;28;20536;-62
2023/08/01 07:03:20;;;;;;;2.33;2.07;;;28.50;63.40;;;29.51;42.14;94602.34;5068741;28;20208;-63
2023/08/01 07:05:49;;;;;;;2.83;1.80;;;28.70;62.90;;;29.70;41.31;94602.69;5071520;28;20474;-63
2023/08/01 07:08:16;;;;;;;4.10;2.23;;;28.90;62.60;;;29.92;41.12;94609.81;5071600;28;20204;-62
2023/08/01 07:10:43;;;;;;;4.43;2.40;;;29.00;61.50;;;30.10;40.73;94603.88;5075199;28;20698;-60
2023/08/01 07:13:10;;;;;;;4.13;2.10;;;29.20;61.70;;;30.25;40.13;94599.56;5067422;28;20203;-63
2023/08/01 07:15:37;;;;;;;4.70;2.33;;;29.40;60.60;;;30.34;40.13;94604.16;5078513;28;20580;-59
2023/08/01 07:18:05;;;;;;;3.43;2.50;;;29.50;60.10;;;30.42;39.78;94596.59;5068977;28;20288;-59
2023/08/01 07:20:32;;;;;;;6.27;2.53;;;29.60;59.80;;;30.55;39.46;94587.91;5072964;28;20219;-63
2023/08/01 07:23:00;;;;;;;4.93;2.03;;;29.70;58.60;;;30.70;39.37;94596.03;5074599;28;20204;-63
2023/08/01 07:25:28;;;;;;;3.63;2.63;;;29.80;58.90;;;30.85;38.92;94594.41;5072206;28;20691;-64
2023/08/01 07:27:55;;;;;;;9.57;2.53;;;30.00;58.50;;;30.91;38.90;94594.09;5075841;28;20212;-58
2023/08/01 07:30:22;;;;;;;3.00;2.30;;;30.10;57.50;;;30.91;38.19;94594.09;5072418;28;20277;-61
2023/08/01 07:32:49;;;;;;;8.43;2.40;;;30.10;57.50;;;30.83;38.22;94583.81;5073348;28;20208;-57
2023/08/01 07:35:17;;;;;;;3.10;2.13;;;30.00;56.80;;;30.70;38.47;94585.16;5072085;28;20281;-58
2023/08/01 07:37:44;;;;;;;2.03;1.90;;;29.90;57.10;;;30.77;38.63;94589.50;5067632;28;20231;-60
2023/08/01 07:40:13;;;;;;;7.90;2.90;;;29.90;57.60;;;30.92;38.59;94592.19;5079618;28;20219;-58
2023/08/01 07:42:40;;;;;;;2.80;2.27;;;30.00;57.80;;;31.16;38.01;94588.94;5068877;28;20215;-64
2023/08/01 07:45:09;;;;;;;8.17;3.03;;;30.20;57.10;;;31.41;37.58;94588.81;5069707;28;20196;-58
2023/08/01 07:47:36;;;;;;;8.00;2.90;;;30.50;57.20;;;31.71;37.53;94588.97;5076372;28;20254;-63
2023/08/01 07:50:03;;;;;;;4.57;2.40;;;30.80;56.80;;;31.93;37.28;94594.84;5068390;28;20366;-62
2023/08/01 07:52:31;;;;;;;4.00;2.08;;;31.00;56.00;;;32.02;36.91;94596.97;5071906;28;20205;-63
2023/08/01 07:54:58;;;;;;;3.33;2.58;;;31.10;55.50;;;32.12;37.07;94592.31;5072171;28;20203;-58
2023/08/01 07:57:27;;;;;;;12.88;2.17;;;31.20;55.90;;;32.28;36.99;94579.38;5067255;28;20232;-59
2023/08/01 07:59:54;;;;;;;7.45;3.38;;;31.40;55.80;;;32.47;36.89;94586.88;5072714;28;20639;-63
2023/08/01 08:02:21;;;;;;;7.85;2.90;;;31.50;55.50;;;32.59;36.64;94583.78;5070356;28;20821;-67
2023/08/01 08:04:49;;;;;;;8.00;2.95;;;31.70;55.20;;;32.71;36.36;94581.50;5073446;28;20288;-59
2023/08/01 08:07:16;;;;;;;3.60;2.10;;;31.80;55.00;;;32.91;36.00;94571.53;5079238;28;20254;-64
2023/08/01 08:09:43;;;;;;;4.70;2.67;;;32.00;54.20;;;33.01;35.86;94574.13;5074029;28;20657;-59
2023/08/01 08:12:10;;;;;;;3.97;2.17;;;32.20;54.20;;;33.06;35.36;94571.34;5075088;28;20228;-60
2023/08/01 08:14:39;;;;;;;7.72;2.33;;;32.20;53.70;;;33.02;35.45;94565.66;5072120;28;20204;-64
2023/08/01 08:17:06;;;;;;;4.30;2.25;;;32.20;53.30;;;33.05;35.18;94565.09;5073148;28;20232;-63
2023/08/01 08:19:34;;;;;;;3.30;2.28;;;32.20;53.30;;;33.12;35.24;94559.28;5076629;28;20208;-63
2023/08/01 08:22:01;;;;;;;3.35;1.98;;;32.20;53.50;;;33.22;35.20;94561.94;5074994;28;20470;-59
2023/08/01 08:24:28;;;;;;;7.50;2.60;;;32.40;52.80;;;33.29;34.92;94563.50;5073580;28;20204;-59
2023/08/01 08:26:56;;;;;;;2.97;2.58;;;32.50;52.90;;;33.42;34.83;94563.59;5073428;28;20738;-60
2023/08/01 08:29:23;;;;;;;4.40;2.40;;;32.60;52.60;;;33.43;34.34;94564.41;5076250;28;20199;-63
2023/08/01 08:31:52;;;;;;;4.40;2.50;;;32.60;51.80;;;33.27;34.52;94552.06;5071343;28;20232;-64
2023/08/01 08:34:19;;;;;;;2.53;2.33;;;32.60;51.80;;;33.15;34.51;94547.78;5074970;28;20204;-58
2023/08/01 08:36:47;;;;;;;2.65;2.42;;;32.40;52.30;;;33.25;34.67;94549.63;5076915;28;20220;-59
2023/08/01 08:39:15;;;;;;;6.35;3.03;;;32.40;52.30;;;33.41;34.76;94550.25;5070827;28;20292;-63
2023/08/01 08:41:47;;;;;;;4.90;2.80;;;32.50;52.50;;;33.66;34.99;94540.09;5076179;28;20219;-58
2023/08/01 08:44:15;;;;;;;5.35;3.42;;;32.80;52.60;;;33.93;34.26;94543.03;5072627;28;20210;-63
2023/08/01 08:46:44;;;;;;;2.80;2.60;;;33.00;52.40;;;34.11;34.03;94540.56;5073852;28;20227;-59
2023/08/01 08:49:15;;;;;;;4.28;2.60;;;33.20;51.90;;;34.21;33.90;94532.22;5070332;28;20200;-63
2023/08/01 08:51:42;;;;;;;4.30;2.70;;;33.40;51.80;;;34.40;33.38;94529.47;5075433;28;20243;-63
2023/08/01 08:54:10;;;;;;;3.90;2.88;;;33.50;51.30;;;34.46;33.53;94530.22;5073343;28;20330;-63
2023/08/01 08:56:38;;;;;;;2.33;2.22;;;33.60;51.20;;;34.48;33.62;94525.25;5076676;28;20224;-64
2023/08/01 08:59:05;;;;;;;4.57;3.05;;;33.70;50.90;;;34.66;34.10;94527.09;5071257;28;20227;-59
2023/08/01 09:01:34;;;;;;;9.80;3.20;;;33.80;51.00;;;34.96;31.92;94521.41;5073299;28;20243;-58
2023/08/01 09:04:01;;;;;;;5.97;2.78;;;34.00;50.00;;;35.23;33.18;94526.06;5074758;28;20222;-58
2023/08/01 09:06:32;;;;;;;3.45;3.10;;;34.30;50.40;;;35.50;32.73;94517.03;5072728;28;20227;-58
2023/08/01 09:09:10;;;;;;;6.28;2.97;;;34.60;49.80;;;35.75;31.41;94516.78;5075584;28;20304;-58
2023/08/01 09:11:43;;;;;;;11.45;2.92;;;34.80;48.70;;;35.91;32.52;94518.06;5071691;28;20224;-62
2023/08/01 09:14:10;;;;;;;8.07;3.10;;;35.00;49.30;;;36.06;31.57;94514.97;5075501;28;20199;-57
2023/08/01 09:16:38;;;;;;;6.65;2.60;;;35.20;48.40;;;36.21;31.77;94515.75;5073774;28;20232;-63
2023/08/01 09:19:06;;;;;;;6.50;2.75;;;35.30;48.50;;;36.33;31.25;94513.28;5073631;28;20251;-63
2023/08/01 09:21:37;;;;;;;5.85;2.97;;;35.50;48.10;;;36.42;31.45;94505.94;5073416;28;20712;-59
2023/08/01 09:24:11;;;;;;;4.32;2.70;;;35.60;48.00;;;36.53;31.19;94495.53;5072551;28;20648;-58
2023/08/01 09:26:38;;;;;;;5.25;2.88;;;35.70;47.80;;;36.61;30.83;94496.69;5073936;28;20668;-59
2023/08/01 09:29:05;;;;;;;4.03;2.70;;;35.80;47.50;;;36.65;30.54;94500.41;5071320;28;20203;-59
2023/08/01 09:31:34;;;;;;;6.10;3.13;;;35.80;46.90;;;36.72;30.86;94503.50;5070170;28;20228;-62
2023/08/01 09:34:03;;;;;;;3.38;2.97;;;35.90;47.30;;;36.83;30.34;94504.06;5074047;28;20200;-64
2023/08/01 09:36:30;;;;;;;4.78;3.35;;;35.90;46.80;;;36.91;30.54;94488.78;5070904;28;20331;-63
2023/08/01 09:39:04;;;;;;;2.85;2.63;;;36.00;46.90;;;36.98;30.35;94494.59;5074192;28;20240;-62
2023/08/01 09:41:31;;;;;;;9.00;3.38;;;36.10;46.40;;;36.95;30.08;94493.31;5071891;28;20224;-63
2023/08/01 09:43:58;;;;;;;4.68;2.33;;;36.20;46.20;;;37.03;30.61;94497.22;5075394;28;20600;-58
2023/08/01 09:46:26;;;;;;;4.50;2.67;;;36.10;46.80;;;37.07;30.59;94487.22;5073345;28;20227;-59
2023/08/01 09:48:54;;;;;;;3.88;2.50;;;36.20;46.70;;;37.14;30.67;94490.31;5070903;28;20204;-64
2023/08/01 09:51:21;;;;;;;4.60;3.33;;;36.30;46.80;;;37.14;30.08;94489.50;5074248;28;20258;-58
2023/08/01 09:53:50;;;;;;;7.88;3.33;;;36.30;46.30;;;37.15;30.11;94480.13;5074046;28;20688;-58
2023/08/01 09:56:21;;;;;;;3.45;3.00;;;36.30;45.90;;;37.22;29.99;94480.53;5075264;28;20220;-64
2023/08/01 09:58:48;;;;;;;3.30;3.00;;;36.30;46.20;;;37.24;30.08;94470.03;5073046;28;20722;-63
2023/08/01 10:01:16;;;;;;;6.03;3.08;;;36.40;45.80;;;37.16;29.76;94464.50;5075888;28;20220;-62
2023/08/01 10:03:46;;;;;;;9.13;3.38;;;36.30;45.20;;;37.17;29.61;94463.38;5070462;28;20277;-63
2023/08/01 10:06:14;;;;;;;4.60;2.83;;;36.30;46.00;;;37.12;29.69;94461.56;5074132;28;20292;-64
2023/08/01 10:08:41;;;;;;;5.57;3.30;;;36.30;45.60;;;37.18;29.69;94459.50;5070082;28;20197;-63
2023/08/01 10:11:08;;;;;;;6.22;3.55;;;36.30;45.70;;;37.24;28.46;94455.50;5073512;28;20661;-62
2023/08/01 10:13:37;;;;;;;3.25;2.90;;;36.30;44.30;;;37.25;29.51;94449.72;5069998;28;20199;-59
2023/08/01 10:16:04;;;;;;;8.75;3.08;;;36.40;45.20;;;37.27;28.56;94441.97;5068916;28;20224;-64
2023/08/01 10:18:31;;;;;;;3.85;2.70;;;36.40;44.40;;;37.22;28.96;94446.78;5071714;28;20228;-58